Time;durP1;ratioP1;P1;durP2;ratioP2;P2;SDS_P1;SDS_P2;PMS_P1;PMS_P2;Temp;Humidity;BMP_temperature;BMP_pressure;BME280_temperature;BME280_humidity;BME280_pressure;Samples;Min_cycle;Max_cycle;Signal;HPM_P1;HPM_P2
2023/07/15 00:01:36;;;;;;;6.93;4.78;;;18.80;99.90;;;;;;4914889;29;20035;-84
2023/07/15 00:04:03;;;;;;;4.95;4.35;;;18.80;99.90;;;;;;4917047;29;20039;-84
2023/07/15 00:06:29;;;;;;;5.60;4.35;;;18.80;99.90;;;;;;4931368;29;20410;-84
2023/07/15 00:08:56;;;;;;;4.65;4.15;;;18.70;99.90;;;;;;4930508;29;20482;-84
2023/07/15 00:11:31;;;;;;;6.88;4.18;;;18.70;99.90;;;;;;4913450;29;20050;-84
2023/07/15 00:13:58;;;;;;;6.00;4.00;;;18.70;99.90;;;;;;4922648;29;20043;-84
2023/07/15 00:16:25;;;;;;;4.95;4.43;;;18.80;99.90;;;;;;4914824;29;20047;-83
2023/07/15 00:18:50;;;;;;;6.95;4.22;;;18.80;99.90;;;;;;4920155;29;20035;-83
2023/07/15 00:21:30;;;;;;;7.65;4.50;;;18.80;99.90;;;;;;4923561;29;20036;-84
2023/07/15 00:23:57;;;;;;;5.75;4.45;;;18.90;99.90;;;;;;4914986;29;20044;-84
2023/07/15 00:26:25;;;;;;;6.95;4.53;;;18.80;99.90;;;;;;4929478;29;20513;-84
2023/07/15 00:28:51;;;;;;;4.65;4.20;;;18.90;99.90;;;;;;4914585;29;20055;-84
2023/07/15 00:31:19;;;;;;;5.47;4.07;;;18.90;99.90;;;;;;4931542;29;20087;-84
2023/07/15 00:33:46;;;;;;;4.88;4.30;;;18.90;99.90;;;;;;4936939;29;20055;-84
2023/07/15 00:36:12;;;;;;;4.95;4.30;;;18.90;99.90;;;;;;4933209;29;20071;-84
2023/07/15 00:38:39;;;;;;;6.70;4.13;;;18.90;99.90;;;;;;4931614;29;20051;-84
2023/07/15 00:41:20;;;;;;;5.85;4.35;;;18.80;99.90;;;;;;4915011;29;20045;-84
2023/07/15 00:44:03;;;;;;;6.13;4.10;;;18.90;99.90;;;;;;4915340;29;20039;-84
2023/07/15 00:46:34;;;;;;;6.38;4.25;;;18.80;99.90;;;;;;4914575;29;20074;-84
2023/07/15 00:49:14;;;;;;;4.15;3.55;;;18.80;99.90;;;;;;4915415;29;20455;-83
2023/07/15 00:51:43;;;;;;;5.32;4.55;;;18.80;99.90;;;;;;4925707;29;20036;-83
2023/07/15 00:54:10;;;;;;;5.05;4.07;;;18.90;99.90;;;;;;4930692;29;20032;-84
2023/07/15 00:56:37;;;;;;;5.82;4.32;;;18.80;99.90;;;;;;4931438;29;20133;-84
2023/07/15 00:59:04;;;;;;;8.60;4.38;;;18.90;99.90;;;;;;4916075;29;20039;-84
2023/07/15 01:01:31;;;;;;;6.13;4.00;;;18.90;99.90;;;;;;4914105;29;20070;-83
2023/07/15 01:03:57;;;;;;;6.38;4.38;;;18.90;99.90;;;;;;4930695;29;20608;-83
2023/07/15 01:06:22;;;;;;;8.43;4.18;;;18.80;99.90;;;;;;4929856;29;20035;-83
2023/07/15 01:08:58;;;;;;;5.22;4.00;;;18.80;99.90;;;;;;4929496;29;20462;-84
2023/07/15 01:11:23;;;;;;;6.57;4.05;;;18.90;99.90;;;;;;4934753;29;20047;-83
2023/07/15 01:13:49;;;;;;;4.90;4.40;;;18.90;99.90;;;;;;4921089;29;20058;-83
2023/07/15 01:16:15;;;;;;;5.88;4.20;;;18.90;99.90;;;;;;4935677;29;20035;-83
2023/07/15 01:18:42;;;;;;;4.35;3.90;;;18.90;99.90;;;;;;4920343;29;20039;-83
2023/07/15 01:21:10;;;;;;;3.83;3.42;;;18.90;99.90;;;;;;4935613;29;20503;-83
2023/07/15 01:23:35;;;;;;;6.28;3.85;;;18.90;99.90;;;;;;4935810;29;20046;-83
2023/07/15 01:26:01;;;;;;;5.30;3.83;;;19.00;99.90;;;;;;4932047;29;20036;-83
2023/07/15 01:28:27;;;;;;;5.45;4.13;;;19.00;99.90;;;;;;4934796;29;20039;-83
2023/07/15 01:30:52;;;;;;;5.03;3.55;;;19.00;99.90;;;;;;4936110;29;20529;-83
2023/07/15 01:33:18;;;;;;;5.38;4.50;;;19.00;99.90;;;;;;4935315;29;20050;-83
2023/07/15 01:35:47;;;;;;;4.93;4.00;;;19.10;99.90;;;;;;4935407;29;20043;-83
2023/07/15 01:38:16;;;;;;;6.68;4.35;;;19.10;99.90;;;;;;4920274;29;20086;-83
2023/07/15 01:40:43;;;;;;;8.52;4.25;;;19.10;99.90;;;;;;4936120;29;20110;-83
2023/07/15 01:43:12;;;;;;;4.38;3.80;;;19.20;99.90;;;;;;4919302;29;20059;-83
2023/07/15 01:45:39;;;;;;;6.18;3.65;;;19.20;99.90;;;;;;4920024;29;20048;-83
2023/07/15 01:48:08;;;;;;;5.57;3.70;;;19.10;99.90;;;;;;4918278;29;20035;-83
2023/07/15 01:50:35;;;;;;;4.60;3.85;;;19.10;99.90;;;;;;4918763;29;20103;-83
2023/07/15 01:53:01;;;;;;;4.25;3.47;;;19.10;99.90;;;;;;4927339;29;20043;-83
2023/07/15 01:55:27;;;;;;;5.07;3.95;;;19.10;99.90;;;;;;4934595;29;20039;-83
2023/07/15 01:57:53;;;;;;;6.20;3.60;;;19.10;99.90;;;;;;4951885;29;20040;-83
2023/07/15 02:00:20;;;;;;;4.22;3.78;;;19.00;99.90;;;;;;4935099;29;20028;-84
2023/07/15 02:02:46;;;;;;;4.47;3.10;;;19.00;99.90;;;;;;4934021;29;20079;-83
2023/07/15 02:05:12;;;;;;;6.10;3.63;;;18.90;99.90;;;;;;4934622;29;20036;-83
2023/07/15 02:07:37;;;;;;;4.50;4.05;;;18.90;99.90;;;;;;4934092;29;20035;-84
2023/07/15 02:10:03;;;;;;;4.32;3.80;;;18.80;99.90;;;;;;4918322;29;20055;-83
2023/07/15 02:12:29;;;;;;;6.07;3.47;;;18.80;99.90;;;;;;4918677;29;20071;-83
2023/07/15 02:14:55;;;;;;;5.55;3.97;;;18.70;99.90;;;;;;4915851;29;20039;-83
2023/07/15 02:17:23;;;;;;;7.45;4.22;;;18.60;99.90;;;;;;4934166;29;20095;-83
2023/07/15 02:19:52;;;;;;;4.20;3.60;;;18.60;99.90;;;;;;4933254;29;20050;-83
2023/07/15 02:22:18;;;;;;;5.72;4.03;;;18.60;99.90;;;;;;4933705;29;20059;-83
2023/07/15 02:24:45;;;;;;;3.97;3.60;;;18.60;99.90;;;;;;4918237;29;20144;-83
2023/07/15 02:27:11;;;;;;;5.10;3.72;;;18.70;99.90;;;;;;4916339;29;20050;-83
2023/07/15 02:29:36;;;;;;;4.80;3.40;;;18.60;99.90;;;;;;4917564;29;20047;-83
2023/07/15 02:32:03;;;;;;;4.60;3.72;;;18.70;99.90;;;;;;4917632;29;20036;-84
2023/07/15 02:34:29;;;;;;;5.05;3.47;;;18.70;99.90;;;;;;4917603;29;20051;-83
2023/07/15 02:36:54;;;;;;;4.63;3.65;;;18.70;99.90;;;;;;4917301;29;20039;-83
2023/07/15 02:39:20;;;;;;;4.82;3.45;;;18.80;99.90;;;;;;4933723;29;20064;-83
2023/07/15 02:41:46;;;;;;;5.45;3.33;;;18.80;99.90;;;;;;4916938;29;20086;-83
2023/07/15 02:44:12;;;;;;;3.35;3.05;;;18.80;99.90;;;;;;4918318;29;20035;-83
2023/07/15 02:46:38;;;;;;;3.90;3.00;;;18.90;99.90;;;;;;4917171;29;20121;-83
2023/07/15 02:49:04;;;;;;;4.88;3.03;;;19.00;99.90;;;;;;4917259;29;20483;-83
2023/07/15 02:51:29;;;;;;;3.45;3.15;;;19.10;99.90;;;;;;4916692;29;20074;-83
2023/07/15 02:53:55;;;;;;;5.57;3.17;;;19.20;99.90;;;;;;4933361;29;20036;-84
2023/07/15 02:56:21;;;;;;;3.92;2.88;;;19.30;99.90;;;;;;4917505;29;20072;-84
2023/07/15 02:58:46;;;;;;;4.18;2.92;;;19.30;99.90;;;;;;4917198;29;20048;-84
2023/07/15 03:01:12;;;;;;;3.55;3.25;;;19.30;99.90;;;;;;4931268;29;20354;-84
2023/07/15 03:03:38;;;;;;;4.20;3.22;;;19.40;99.90;;;;;;4948842;29;20095;-83
2023/07/15 03:06:03;;;;;;;4.28;3.08;;;19.30;99.90;;;;;;4930459;29;20067;-84
2023/07/15 03:08:29;;;;;;;4.10;3.05;;;19.40;99.90;;;;;;4948996;29;20408;-84
2023/07/15 03:10:55;;;;;;;7.45;3.20;;;19.40;99.90;;;;;;4923514;29;20134;-84
2023/07/15 03:13:21;;;;;;;5.00;3.30;;;19.40;99.90;;;;;;4931371;29;20046;-84
2023/07/15 03:15:47;;;;;;;3.25;2.95;;;19.50;99.90;;;;;;4915951;29;20048;-84
2023/07/15 03:18:13;;;;;;;3.53;3.10;;;19.50;99.90;;;;;;4915700;29;20075;-84
2023/07/15 03:20:39;;;;;;;4.65;3.42;;;19.50;99.90;;;;;;4929936;29;20043;-84
2023/07/15 03:23:04;;;;;;;5.10;3.25;;;19.50;99.90;;;;;;4929741;29;20118;-84
2023/07/15 03:25:30;;;;;;;5.63;3.30;;;19.50;99.90;;;;;;4912446;29;20040;-84
2023/07/15 03:27:56;;;;;;;6.43;3.45;;;19.50;99.90;;;;;;4931467;29;20050;-83
2023/07/15 03:30:21;;;;;;;4.78;2.90;;;19.50;99.90;;;;;;4915682;29;20650;-84
2023/07/15 03:32:47;;;;;;;5.13;3.03;;;19.50;99.90;;;;;;4930456;29;20047;-83
2023/07/15 03:35:13;;;;;;;3.85;2.83;;;19.50;99.90;;;;;;4931003;29;20127;-83
2023/07/15 03:37:41;;;;;;;4.22;3.55;;;19.50;99.90;;;;;;4929881;29;20058;-84
2023/07/15 03:40:08;;;;;;;4.00;3.00;;;19.50;99.90;;;;;;4914533;29;20036;-84
2023/07/15 03:42:34;;;;;;;4.18;3.13;;;19.50;99.90;;;;;;4914176;29;20471;-83
2023/07/15 03:45:00;;;;;;;4.60;2.92;;;19.50;99.90;;;;;;4915670;29;20036;-83
2023/07/15 03:47:27;;;;;;;5.38;2.90;;;19.50;99.90;;;;;;4930296;29;20051;-84
2023/07/15 03:49:53;;;;;;;4.47;2.90;;;19.50;99.90;;;;;;4915157;29;20474;-84
2023/07/15 03:52:18;;;;;;;3.83;3.05;;;19.50;99.90;;;;;;4929926;29;20085;-83
2023/07/15 03:54:44;;;;;;;3.25;2.95;;;19.40;99.90;;;;;;4931005;29;20043;-83
2023/07/15 03:57:11;;;;;;;3.67;2.83;;;19.40;99.90;;;;;;4931274;29;20036;-83
2023/07/15 03:59:36;;;;;;;4.15;3.17;;;19.40;99.90;;;;;;4915828;29;20063;-83
2023/07/15 04:02:03;;;;;;;5.78;3.08;;;19.40;99.90;;;;;;4914379;29;20039;-83
2023/07/15 04:04:29;;;;;;;4.47;3.45;;;19.30;99.90;;;;;;4915078;29;20040;-83
2023/07/15 04:06:55;;;;;;;3.00;2.70;;;19.30;99.90;;;;;;4908993;29;20032;-83
2023/07/15 04:09:21;;;;;;;4.28;2.95;;;19.30;99.90;;;;;;4919830;29;20577;-84
2023/07/15 04:11:47;;;;;;;4.43;2.85;;;19.30;99.90;;;;;;4932778;29;20090;-83
2023/07/15 04:14:12;;;;;;;4.10;3.15;;;19.30;99.90;;;;;;4932377;29;20071;-83
2023/07/15 04:16:41;;;;;;;5.07;3.45;;;19.20;99.90;;;;;;4917327;29;20042;-83
2023/07/15 04:19:07;;;;;;;5.28;2.88;;;19.20;99.90;;;;;;4933249;29;20100;-83
2023/07/15 04:21:32;;;;;;;4.57;3.03;;;19.10;99.90;;;;;;4931824;29;20055;-83
2023/07/15 04:23:58;;;;;;;4.18;3.25;;;19.10;99.90;;;;;;4933490;29;20035;-83
2023/07/15 04:26:26;;;;;;;4.88;3.35;;;19.10;99.90;;;;;;4932060;29;20042;-83
2023/07/15 04:28:54;;;;;;;5.80;3.00;;;19.10;99.90;;;;;;4916277;29;20042;-83
2023/07/15 04:31:20;;;;;;;3.88;3.50;;;19.10;99.90;;;;;;4931964;29;20043;-83
2023/07/15 04:33:50;;;;;;;5.22;3.20;;;19.10;99.90;;;;;;4932143;29;20058;-83
2023/07/15 04:36:19;;;;;;;3.40;2.83;;;19.10;99.90;;;;;;4916200;29;20048;-83
2023/07/15 04:38:45;;;;;;;3.92;3.40;;;19.10;99.90;;;;;;4932238;29;20070;-83
2023/07/15 04:41:11;;;;;;;4.15;3.25;;;19.10;99.90;;;;;;4916347;29;20133;-83
2023/07/15 04:43:36;;;;;;;4.82;3.45;;;19.10;99.90;;;;;;4915897;29;20036;-83
2023/07/15 04:46:03;;;;;;;3.83;3.45;;;19.10;99.90;;;;;;4916001;29;20042;-83
2023/07/15 04:48:29;;;;;;;4.88;4.00;;;19.10;99.90;;;;;;4932668;29;20064;-83
2023/07/15 04:50:55;;;;;;;4.20;3.15;;;19.10;99.90;;;;;;4930510;29;20306;-83
2023/07/15 04:53:21;;;;;;;3.60;3.30;;;19.20;99.90;;;;;;4931219;29;20046;-83
2023/07/15 04:55:47;;;;;;;4.55;3.53;;;19.10;99.90;;;;;;4930390;29;20067;-83
2023/07/15 04:58:15;;;;;;;4.00;3.60;;;19.20;99.90;;;;;;4915430;29;20087;-83
2023/07/15 05:00:44;;;;;;;5.05;3.17;;;19.20;99.90;;;;;;4922397;29;20111;-83
2023/07/15 05:03:11;;;;;;;3.58;3.22;;;19.20;99.90;;;;;;4912621;29;20031;-84
2023/07/15 05:05:36;;;;;;;5.22;3.50;;;19.30;99.90;;;;;;4925782;29;20127;-84
2023/07/15 05:08:18;;;;;;;4.38;3.15;;;19.30;99.90;;;;;;4908369;29;20063;-83
2023/07/15 05:10:45;;;;;;;4.85;3.13;;;19.40;99.90;;;;;;4920750;29;20074;-83
2023/07/15 05:13:11;;;;;;;3.63;3.08;;;19.40;99.90;;;;;;4924125;29;20094;-83
2023/07/15 05:15:38;;;;;;;6.05;3.33;;;19.50;99.90;;;;;;4911043;29;20494;-83
2023/07/15 05:18:04;;;;;;;4.57;3.33;;;19.50;99.90;;;;;;4910670;29;20470;-83
2023/07/15 05:20:31;;;;;;;3.38;3.08;;;19.60;99.90;;;;;;4908074;29;20137;-83
2023/07/15 05:22:57;;;;;;;4.38;3.50;;;19.60;99.90;;;;;;4921636;29;20056;-83
2023/07/15 05:25:29;;;;;;;4.30;3.45;;;19.70;99.90;;;;;;4906267;29;20051;-83
2023/07/15 05:27:55;;;;;;;3.80;3.00;;;19.70;99.90;;;;;;4912934;29;20047;-83
2023/07/15 05:30:22;;;;;;;5.10;2.97;;;19.80;99.90;;;;;;4923326;29;20047;-83
2023/07/15 05:32:48;;;;;;;4.47;3.40;;;19.90;99.90;;;;;;4903865;29;20573;-83
2023/07/15 05:35:14;;;;;;;4.13;3.00;;;19.90;99.90;;;;;;4924741;29;20044;-83
2023/07/15 05:37:40;;;;;;;4.43;3.28;;;19.90;99.90;;;;;;4900895;29;20036;-83
2023/07/15 05:40:09;;;;;;;3.10;2.80;;;20.00;99.90;;;;;;4904945;29;20044;-83
2023/07/15 05:42:40;;;;;;;5.15;3.17;;;20.10;99.90;;;;;;4896230;29;20086;-83
2023/07/15 05:45:06;;;;;;;6.40;3.35;;;20.20;99.90;;;;;;4910301;29;20405;-83
2023/07/15 05:47:34;;;;;;;4.00;3.17;;;20.20;99.90;;;;;;4912850;29;20086;-83
2023/07/15 05:50:01;;;;;;;3.47;3.10;;;20.30;99.90;;;;;;4896458;29;20040;-83
2023/07/15 05:52:27;;;;;;;6.32;3.20;;;20.40;99.90;;;;;;4910717;29;20526;-83
2023/07/15 05:54:53;;;;;;;6.28;3.22;;;20.50;99.90;;;;;;4894630;29;20043;-83
2023/07/15 05:57:19;;;;;;;3.75;3.45;;;20.60;99.90;;;;;;4896138;29;20044;-83
2023/07/15 05:59:45;;;;;;;4.68;3.10;;;20.70;99.90;;;;;;4901874;29;20036;-83
2023/07/15 06:02:11;;;;;;;3.97;3.35;;;20.80;99.90;;;;;;4901420;29;20103;-83
2023/07/15 06:04:36;;;;;;;4.43;3.00;;;20.80;99.90;;;;;;4900082;29;20063;-83
2023/07/15 06:07:02;;;;;;;4.68;3.33;;;20.90;99.90;;;;;;4895769;29;20036;-83
2023/07/15 06:09:28;;;;;;;5.68;3.20;;;21.00;99.90;;;;;;4894419;29;20040;-84
2023/07/15 06:11:53;;;;;;;6.07;3.45;;;21.10;99.90;;;;;;4908538;29;20067;-84
2023/07/15 06:14:19;;;;;;;5.38;3.30;;;21.20;99.90;;;;;;4902280;29;20071;-83
2023/07/15 06:16:45;;;;;;;3.75;3.20;;;21.30;99.90;;;;;;4904102;29;20048;-83
2023/07/15 06:19:10;;;;;;;6.50;3.10;;;21.40;99.90;;;;;;4898158;29;20031;-84
2023/07/15 06:21:36;;;;;;;4.15;3.30;;;21.50;99.90;;;;;;4913495;29;20047;-84
2023/07/15 06:24:03;;;;;;;5.65;3.35;;;21.60;99.90;;;;;;4890447;29;20040;-83
2023/07/15 06:26:32;;;;;;;6.18;3.40;;;21.70;99.90;;;;;;4894562;29;20046;-83
2023/07/15 06:28:57;;;;;;;4.32;3.13;;;21.70;99.90;;;;;;4892178;29;20091;-84
2023/07/15 06:31:23;;;;;;;4.95;3.60;;;21.80;99.90;;;;;;4891576;29;20040;-82
2023/07/15 06:33:49;;;;;;;5.88;3.78;;;21.90;99.90;;;;;;4910388;29;20040;-82
2023/07/15 06:36:15;;;;;;;5.53;3.35;;;21.90;99.90;;;;;;4894752;29;20055;-81
2023/07/15 06:38:41;;;;;;;3.67;3.30;;;22.00;99.90;;;;;;4888384;29;20452;-82
2023/07/15 06:41:06;;;;;;;3.58;3.28;;;22.00;99.90;;;;;;4908679;29;20044;-80
2023/07/15 06:43:32;;;;;;;5.80;3.60;;;22.10;99.90;;;;;;4906686;29;20044;-81
2023/07/15 06:45:58;;;;;;;4.18;3.40;;;22.20;99.90;;;;;;4896632;29;20473;-81
2023/07/15 06:48:23;;;;;;;4.63;3.95;;;22.20;99.90;;;;;;4907886;29;20415;-81
2023/07/15 06:50:49;;;;;;;8.23;3.70;;;22.20;99.90;;;;;;4909704;29;20047;-81
2023/07/15 06:53:15;;;;;;;5.10;3.53;;;22.30;99.90;;;;;;4904610;29;20051;-80
2023/07/15 06:55:40;;;;;;;4.30;3.13;;;22.40;99.90;;;;;;4903332;29;20036;-81
2023/07/15 06:58:07;;;;;;;4.03;3.10;;;22.50;99.90;;;;;;4906845;29;20047;-80
2023/07/15 07:00:33;;;;;;;5.60;3.63;;;22.60;99.90;;;;;;4893090;29;20059;-80
2023/07/15 07:03:00;;;;;;;4.43;3.22;;;22.70;99.90;;;;;;4900971;29;20044;-81
2023/07/15 07:05:26;;;;;;;3.30;3.00;;;22.90;99.90;;;;;;4903594;29;20048;-82
2023/07/15 07:07:52;;;;;;;4.25;3.03;;;23.00;99.90;;;;;;4902947;29;20091;-80
2023/07/15 07:10:18;;;;;;;5.93;3.28;;;23.10;99.90;;;;;;4917882;29;20048;-81
2023/07/15 07:12:44;;;;;;;4.05;3.00;;;23.20;99.90;;;;;;4909832;29;20047;-82
2023/07/15 07:15:10;;;;;;;4.38;3.10;;;23.30;99.90;;;;;;4899591;29;20071;-81
2023/07/15 07:17:36;;;;;;;5.22;2.90;;;23.40;99.90;;;;;;4903365;29;20080;-81
2023/07/15 07:20:03;;;;;;;6.03;3.15;;;23.60;99.90;;;;;;4917541;29;20044;-79
2023/07/15 07:22:29;;;;;;;5.47;3.25;;;23.70;99.90;;;;;;4902449;29;20127;-81
2023/07/15 07:24:55;;;;;;;5.68;2.70;;;23.80;99.90;;;;;;4897180;29;20071;-81
2023/07/15 07:27:20;;;;;;;4.75;2.80;;;23.90;99.90;;;;;;4912403;29;20035;-81
2023/07/15 07:29:46;;;;;;;4.55;2.70;;;23.90;99.90;;;;;;4916974;29;20277;-80
2023/07/15 07:32:11;;;;;;;5.32;2.67;;;24.00;99.90;;;;;;4900764;29;20067;-82
2023/07/15 07:34:37;;;;;;;4.60;2.55;;;24.10;99.90;;;;;;4919828;29;20036;-79
2023/07/15 07:37:03;;;;;;;4.20;2.58;;;24.20;99.90;;;;;;4926970;29;20035;-81
2023/07/15 07:39:29;;;;;;;2.85;2.35;;;24.50;99.90;;;;;;4910720;29;20036;-82
2023/07/15 07:41:55;;;;;;;2.92;2.50;;;24.70;99.90;;;;;;4918045;29;20043;-81
2023/07/15 07:44:21;;;;;;;3.40;3.00;;;24.90;99.90;;;;;;4907777;29;20059;-79
2023/07/15 07:46:47;;;;;;;3.95;2.65;;;25.00;99.90;;;;;;4923439;29;20046;-76
2023/07/15 07:49:12;;;;;;;3.72;2.78;;;25.00;99.90;;;;;;4923071;29;20040;-79
2023/07/15 07:51:38;;;;;;;2.90;2.28;;;25.20;99.90;;;;;;4919535;29;20070;-81
2023/07/15 07:54:04;;;;;;;5.10;2.72;;;25.30;99.90;;;;;;4898887;29;20043;-84
2023/07/15 07:56:30;;;;;;;4.30;2.40;;;25.40;99.90;;;;;;4919795;29;21006;-80
2023/07/15 07:58:58;;;;;;;4.03;2.30;;;25.50;99.90;;;;;;4923029;29;20071;-81
2023/07/15 08:01:28;;;;;;;3.08;2.25;;;25.50;99.90;;;;;;4905162;29;20099;-81
2023/07/15 08:03:55;;;;;;;4.72;2.50;;;25.60;99.90;;;;;;4902682;29;20039;-81
2023/07/15 08:06:21;;;;;;;3.63;2.45;;;25.70;99.90;;;;;;4919872;29;20530;-78
2023/07/15 08:08:47;;;;;;;4.70;2.25;;;25.80;99.90;;;;;;4920826;29;20043;-81
2023/07/15 08:11:13;;;;;;;3.25;2.03;;;25.80;99.90;;;;;;4904750;29;20101;-85
2023/07/15 08:13:38;;;;;;;2.80;2.20;;;25.90;99.90;;;;;;4902411;29;20043;-86
2023/07/15 08:16:04;;;;;;;3.13;2.20;;;26.00;99.90;;;;;;4916016;29;20538;-85
2023/07/15 08:18:30;;;;;;;2.38;2.15;;;26.10;99.90;;;;;;4916150;29;20156;-85
2023/07/15 08:21:08;;;;;;;3.15;2.20;;;26.30;99.90;;;;;;4964418;23;20142;-86
2023/07/15 08:23:34;;;;;;;3.95;1.83;;;26.30;99.90;;;;;;4918696;29;20051;-87
2023/07/15 08:25:59;;;;;;;2.30;2.00;;;26.30;99.90;;;;;;4906579;23;20040;-89
2023/07/15 08:28:25;;;;;;;2.65;1.73;;;26.40;99.90;;;;;;4895823;29;20044;-89
2023/07/15 08:30:51;;;;;;;2.22;2.03;;;26.40;99.90;;;;;;4891925;29;20063;-89
2023/07/15 08:33:16;;;;;;;4.50;2.30;;;26.50;99.90;;;;;;4893602;29;20036;-89
2023/07/15 08:35:44;;;;;;;3.90;2.40;;;26.50;99.90;;;;;;4882126;29;20170;-89
2023/07/15 08:38:10;;;;;;;3.90;2.25;;;26.50;99.90;;;;;;4895991;29;20040;-89
2023/07/15 08:40:36;;;;;;;2.60;2.22;;;26.50;99.90;;;;;;4886343;29;20044;-88
2023/07/15 08:43:02;;;;;;;3.55;2.28;;;26.50;99.90;;;;;;4897347;29;20040;-89
2023/07/15 08:45:33;;;;;;;2.35;2.03;;;26.70;99.90;;;;;;4882547;29;20044;-89
2023/07/15 08:47:59;;;;;;;2.78;1.98;;;27.10;99.90;;;;;;4875382;29;20044;-89
2023/07/15 08:50:27;;;;;;;2.42;1.83;;;27.40;99.90;;;;;;4909199;29;20052;-89
2023/07/15 08:52:53;;;;;;;4.13;2.25;;;27.50;99.90;;;;;;4894767;29;20040;-89
2023/07/15 08:55:19;;;;;;;4.20;2.40;;;27.60;99.90;;;;;;4906751;29;20043;-89
2023/07/15 08:57:45;;;;;;;2.83;2.15;;;27.80;99.90;;;;;;4903328;29;20495;-89
2023/07/15 09:00:12;;;;;;;3.30;2.05;;;27.70;99.90;;;;;;4883807;29;20040;-89
2023/07/15 09:02:38;;;;;;;2.95;2.28;;;27.70;99.90;;;;;;4884092;29;20055;-88
2023/07/15 09:05:12;;;;;;;5.13;2.38;;;27.70;99.90;;;;;;4901905;29;20501;-89
2023/07/15 09:07:51;;;;;;;2.40;2.05;;;27.50;99.90;;;;;;4884682;29;20043;-89
2023/07/15 09:10:17;;;;;;;2.97;2.10;;;27.60;99.90;;;;;;4887900;29;20461;-89
2023/07/15 09:12:47;;;;;;;2.35;2.17;;;27.50;99.90;;;;;;4887071;29;20071;-89
2023/07/15 09:15:16;;;;;;;3.75;2.08;;;27.60;99.90;;;;;;4884357;29;20123;-89
2023/07/15 09:17:51;;;;;;;4.80;2.20;;;27.40;99.90;;;;;;4899639;29;20537;-89
2023/07/15 09:20:18;;;;;;;2.38;2.08;;;27.20;99.90;;;;;;4883523;29;20040;-88
2023/07/15 09:22:49;;;;;;;3.15;2.38;;;27.50;99.90;;;;;;4889578;29;20127;-88
2023/07/15 09:25:15;;;;;;;4.10;2.28;;;27.60;99.90;;;;;;4878319;29;20028;-88
2023/07/15 09:27:42;;;;;;;3.22;2.47;;;27.60;99.90;;;;;;4885801;29;20499;-89
2023/07/15 09:30:09;;;;;;;7.30;2.88;;;27.60;99.90;;;;;;4885413;29;20044;-89
2023/07/15 09:32:35;;;;;;;3.45;2.33;;;27.60;99.90;;;;;;4886537;29;20513;-89
2023/07/15 09:35:02;;;;;;;3.13;2.20;;;27.90;99.90;;;;;;4885296;29;20123;-89
2023/07/15 09:37:29;;;;;;;4.97;2.45;;;28.20;99.90;;;;;;4893049;29;20047;-88
2023/07/15 09:40:09;;;;;;;4.05;2.20;;;28.30;99.90;;;;;;4880524;29;20040;-88
2023/07/15 09:42:55;;;;;;;5.68;2.30;;;28.00;99.90;;;;;;4901191;29;20528;-89
2023/07/15 09:45:40;;;;;;;2.58;2.20;;;28.00;99.90;;;;;;4901649;29;20040;-88
2023/07/15 09:48:08;;;;;;;2.80;1.70;;;28.00;99.20;;;;;;4899589;29;20050;-89
2023/07/15 09:50:36;;;;;;;2.63;2.00;;;28.00;99.60;;;;;;4903864;29;20077;-89
2023/07/15 09:53:02;;;;;;;2.47;2.00;;;27.90;99.20;;;;;;4884967;29;20509;-89
2023/07/15 09:55:29;;;;;;;2.50;2.00;;;27.80;98.80;;;;;;4885499;29;20051;-88
2023/07/15 09:58:19;;;;;;;4.82;2.05;;;27.80;98.80;;;;;;4881992;29;20087;-87
2023/07/15 10:01:11;;;;;;;2.25;2.05;;;27.80;99.00;;;;;;4883693;29;20040;-89
2023/07/15 10:03:55;;;;;;;3.28;2.30;;;27.80;98.40;;;;;;4881675;29;20430;-89
2023/07/15 10:06:21;;;;;;;4.50;2.25;;;28.00;98.50;;;;;;4886055;29;20463;-89
2023/07/15 10:08:48;;;;;;;3.13;1.95;;;28.10;98.60;;;;;;4883044;29;20043;-89
2023/07/15 10:11:18;;;;;;;2.97;1.90;;;28.00;98.40;;;;;;4886759;29;20044;-88
2023/07/15 10:13:46;;;;;;;2.50;1.85;;;27.90;98.40;;;;;;4893429;29;20163;-89
2023/07/15 10:16:15;;;;;;;5.85;2.60;;;28.00;98.60;;;;;;4903513;28;20027;-88
2023/07/15 10:18:41;;;;;;;2.45;2.00;;;28.10;99.00;;;;;;4908297;29;20035;-88
2023/07/15 10:21:09;;;;;;;2.42;1.67;;;28.10;98.60;;;;;;4908756;29;20067;-88
2023/07/15 10:23:44;;;;;;;2.75;1.58;;;28.00;98.40;;;;;;4908276;28;20035;-88
2023/07/15 10:26:10;;;;;;;2.55;1.40;;;27.80;98.20;;;;;;4885266;29;20588;-89
2023/07/15 10:28:58;;;;;;;4.25;1.80;;;27.50;98.70;;;;;;4894717;29;20415;-89
2023/07/15 10:31:24;;;;;;;2.63;1.80;;;27.30;98.90;;;;;;4897567;29;20089;-88
2023/07/15 10:33:58;;;;;;;2.10;2.00;;;27.10;99.60;;;;;;4897099;29;20048;-87
2023/07/15 10:36:44;;;;;;;2.70;2.10;;;27.10;99.90;;;;;;4900677;29;20044;-89
2023/07/15 10:39:17;;;;;;;3.05;1.77;;;26.90;99.90;;;;;;4899019;29;20181;-89
2023/07/15 10:41:48;;;;;;;5.47;1.90;;;26.70;99.90;;;;;;4883552;29;20036;-88
2023/07/15 10:44:24;;;;;;;2.58;1.55;;;26.70;99.70;;;;;;4884996;29;20044;-88
2023/07/15 10:46:59;;;;;;;4.38;2.08;;;26.60;99.70;;;;;;4884677;29;20501;-88
2023/07/15 10:49:25;;;;;;;4.90;2.22;;;26.60;99.40;;;;;;4885059;29;20044;-88
2023/07/15 10:51:52;;;;;;;3.25;1.75;;;26.90;99.40;;;;;;4884596;29;20392;-88
2023/07/15 10:54:20;;;;;;;1.98;1.85;;;27.30;99.50;;;;;;4899630;29;20052;-88
2023/07/15 10:56:48;;;;;;;2.92;1.70;;;28.00;99.20;;;;;;4899577;29;20438;-89
2023/07/15 10:59:14;;;;;;;2.38;1.70;;;28.70;98.90;;;;;;4893130;29;20068;-89
2023/07/15 11:01:43;;;;;;;4.63;2.10;;;29.10;98.00;;;;;;4887299;29;20075;-88
2023/07/15 11:04:09;;;;;;;4.20;1.98;;;29.10;96.80;;;;;;4883911;29;20050;-88
2023/07/15 11:06:35;;;;;;;3.75;2.55;;;28.80;96.40;;;;;;4899053;29;20123;-88
2023/07/15 11:09:18;;;;;;;2.92;2.50;;;28.30;95.60;;;;;;4894744;29;20411;-89
2023/07/15 11:11:47;;;;;;;3.10;2.55;;;28.00;95.30;;;;;;4897474;29;20036;-88
2023/07/15 11:14:20;;;;;;;5.00;2.15;;;27.60;96.00;;;;;;4877899;29;20047;-88
2023/07/15 11:16:46;;;;;;;2.30;2.00;;;27.30;96.60;;;;;;4881105;29;20041;-88
2023/07/15 11:19:15;;;;;;;2.83;2.33;;;27.00;96.90;;;;;;4879377;29;20131;-88
2023/07/15 11:21:45;;;;;;;3.15;1.90;;;26.80;97.80;;;;;;4878802;29;20040;-88
2023/07/15 11:24:12;;;;;;;3.60;2.22;;;26.60;97.90;;;;;;4877961;29;20152;-88
2023/07/15 11:26:39;;;;;;;5.43;2.20;;;26.50;98.60;;;;;;4880746;29;20040;-88
2023/07/15 11:29:15;;;;;;;3.85;2.30;;;26.40;99.30;;;;;;4902573;29;20143;-88
2023/07/15 11:31:55;;;;;;;4.47;2.22;;;26.30;99.90;;;;;;4874394;29;20091;-88
2023/07/15 11:34:26;;;;;;;4.88;2.45;;;26.10;99.90;;;;;;4883059;29;20044;-89
2023/07/15 11:36:54;;;;;;;2.08;1.88;;;25.90;99.90;;;;;;4883190;29;20466;-89
2023/07/15 11:39:20;;;;;;;5.00;2.20;;;25.80;99.90;;;;;;4902879;29;20044;-88
2023/07/15 11:41:46;;;;;;;2.97;2.10;;;25.80;99.90;;;;;;4882280;29;20076;-88
2023/07/15 11:44:20;;;;;;;4.05;1.90;;;25.80;99.90;;;;;;4882177;29;20494;-88
2023/07/15 11:46:46;;;;;;;3.22;1.98;;;25.90;99.90;;;;;;4898738;29;20131;-88
2023/07/15 11:49:19;;;;;;;2.13;1.92;;;25.90;99.90;;;;;;4882472;29;20063;-87
2023/07/15 11:51:44;;;;;;;5.18;2.50;;;25.80;99.90;;;;;;4892052;29;20044;-81
2023/07/15 11:54:12;;;;;;;4.88;2.20;;;25.80;99.90;;;;;;4907329;29;20550;-81
2023/07/15 11:56:40;;;;;;;4.28;2.10;;;25.80;99.90;;;;;;4886077;29;20040;-80
2023/07/15 11:59:07;;;;;;;3.78;2.33;;;25.80;99.90;;;;;;4919156;29;20048;-80
2023/07/15 12:01:35;;;;;;;4.25;2.40;;;25.80;99.90;;;;;;4905967;29;20033;-81
2023/07/15 12:04:01;;;;;;;4.40;2.25;;;25.80;99.90;;;;;;4885319;29;20078;-82
2023/07/15 12:06:28;;;;;;;2.38;2.17;;;25.80;99.90;;;;;;4902318;29;20076;-81
2023/07/15 12:09:10;;;;;;;2.42;2.15;;;25.90;99.90;;;;;;4922978;29;20398;-81
2023/07/15 12:11:36;;;;;;;3.35;2.40;;;26.10;99.90;;;;;;4908666;29;20582;-81
2023/07/15 12:14:04;;;;;;;2.38;2.17;;;26.50;99.90;;;;;;4894925;29;20104;-81
2023/07/15 12:16:31;;;;;;;2.55;1.85;;;27.10;99.90;;;;;;4899272;29;20100;-83
2023/07/15 12:18:58;;;;;;;4.07;1.83;;;27.20;99.90;;;;;;4881457;29;20036;-87
2023/07/15 12:21:24;;;;;;;3.72;2.33;;;27.20;99.90;;;;;;4896948;29;20044;-89
2023/07/15 12:23:50;;;;;;;2.50;2.03;;;27.10;98.70;;;;;;4879450;29;20292;-87
2023/07/15 12:26:17;;;;;;;2.97;2.08;;;27.10;98.10;;;;;;4893623;29;20044;-87
2023/07/15 12:28:43;;;;;;;2.20;1.60;;;27.10;97.40;;;;;;4882030;29;20055;-88
2023/07/15 12:31:12;;;;;;;2.10;1.85;;;26.90;96.60;;;;;;4891896;29;20036;-89
2023/07/15 12:33:37;;;;;;;5.43;1.70;;;26.70;96.60;;;;;;4874359;29;20479;-88
2023/07/15 12:36:07;;;;;;;4.13;2.25;;;26.40;96.50;;;;;;4875241;29;20044;-88
2023/07/15 12:38:33;;;;;;;3.10;1.67;;;26.20;96.60;;;;;;4882182;29;20040;-87
2023/07/15 12:40:58;;;;;;;4.22;1.90;;;26.00;96.80;;;;;;4880797;29;20084;-87
2023/07/15 12:43:25;;;;;;;2.67;1.95;;;25.90;97.20;;;;;;4877726;29;20040;-88
2023/07/15 12:45:52;;;;;;;3.00;2.00;;;25.90;97.40;;;;;;4876334;29;20070;-86
2023/07/15 12:48:17;;;;;;;4.70;2.05;;;25.90;97.50;;;;;;4897752;29;20519;-86
2023/07/15 12:50:43;;;;;;;3.78;1.70;;;25.80;98.00;;;;;;4873541;29;20044;-85